createdAt,value
2023-04-18T00:00:41.928Z,19.400
2023-04-18T00:01:42.171Z,17.900
2023-04-18T00:02:42.068Z,18.800
2023-04-18T00:03:42.619Z,20.300
2023-04-18T00:04:43.361Z,20.400
2023-04-18T00:05:41.760Z,19.400
2023-04-18T00:06:41.970Z,19.400
2023-04-18T00:07:42.191Z,18.800
2023-04-18T00:09:41.883Z,22.000
2023-04-18T00:10:42.136Z,20.300
2023-04-18T00:11:43.295Z,18.900
2023-04-18T00:13:41.566Z,19.400
2023-04-18T00:14:41.688Z,19.100
2023-04-18T00:15:41.799Z,18.900
2023-04-18T00:16:42.083Z,17.800
2023-04-18T00:17:42.486Z,19.700
2023-04-18T00:18:41.649Z,18.500
2023-04-18T00:19:41.872Z,19.900
2023-04-18T00:20:42.160Z,18.600
2023-04-18T00:21:41.528Z,18.600
2023-04-18T00:22:41.667Z,20.800
2023-04-18T00:23:41.908Z,20.000
2023-04-18T00:24:42.099Z,20.500
2023-04-18T00:25:42.293Z,20.300
2023-04-18T00:26:41.445Z,19.500
2023-04-18T00:27:41.679Z,20.100
2023-04-18T00:28:42.096Z,17.400
2023-04-18T00:29:42.301Z,16.800
2023-04-18T00:30:41.563Z,18.700
2023-04-18T00:31:42.140Z,17.400
2023-04-18T00:32:41.466Z,17.200
2023-04-18T00:33:41.835Z,17.300
2023-04-18T00:35:42.141Z,18.800
2023-04-18T00:36:41.375Z,17.600
2023-04-18T00:37:41.921Z,18.200
2023-04-18T00:38:42.069Z,18.000
2023-04-18T00:39:42.263Z,19.000
2023-04-18T00:40:41.416Z,18.800
2023-04-18T00:41:41.808Z,16.700
2023-04-18T00:42:41.982Z,19.900
2023-04-18T00:43:42.237Z,18.700
2023-04-18T00:44:41.377Z,17.300
2023-04-18T00:45:41.652Z,17.100
2023-04-18T00:46:41.987Z,18.100
2023-04-18T00:47:42.375Z,18.300
2023-04-18T00:48:41.559Z,17.800
2023-04-18T00:49:41.773Z,18.200
2023-04-18T00:50:42.041Z,17.000
2023-04-18T00:51:42.325Z,16.700
2023-04-18T00:52:41.518Z,18.200
2023-04-18T00:53:41.743Z,17.800
2023-04-18T00:54:41.942Z,16.900
2023-04-18T00:55:42.140Z,18.200
2023-04-18T00:56:41.262Z,18.000
2023-04-18T00:57:41.457Z,25.800
2023-04-18T00:58:41.597Z,19.800
2023-04-18T00:59:41.778Z,21.100
2023-04-18T01:00:42.035Z,16.300
2023-04-18T01:01:42.456Z,17.200
2023-04-18T01:02:42.512Z,20.300
2023-04-18T01:03:43.015Z,25.400
2023-04-18T01:04:42.025Z,21.900
2023-04-18T01:05:41.269Z,17.200
2023-04-18T01:06:41.453Z,17.100
2023-04-18T01:07:41.780Z,16.700
2023-04-18T01:08:42.050Z,17.700
2023-04-18T01:09:42.183Z,17.100
2023-04-18T01:10:41.351Z,18.500
2023-04-18T01:11:41.442Z,17.700
2023-04-18T01:12:41.634Z,17.600
2023-04-18T01:13:41.749Z,16.500
2023-04-18T01:14:41.982Z,17.400
2023-04-18T01:15:42.275Z,17.200
2023-04-18T01:16:41.694Z,17.000
2023-04-18T01:17:41.970Z,16.700
2023-04-18T01:18:42.273Z,17.800
2023-04-18T01:19:41.497Z,17.500
2023-04-18T01:20:41.690Z,16.100
2023-04-18T01:21:41.854Z,16.300
2023-04-18T01:22:42.032Z,17.200
2023-04-18T01:23:42.248Z,17.700
2023-04-18T01:24:41.371Z,20.900
2023-04-18T01:25:41.552Z,16.900
2023-04-18T01:26:41.745Z,15.900
2023-04-18T01:27:41.936Z,16.400
2023-04-18T01:28:42.143Z,16.700
2023-04-18T01:29:42.346Z,15.700
2023-04-18T01:30:41.547Z,23.200
2023-04-18T01:31:42.054Z,17.700
2023-04-18T01:32:41.625Z,16.300
2023-04-18T01:33:41.824Z,16.200
2023-04-18T01:34:41.980Z,23.000
2023-04-18T01:35:42.223Z,28.600
2023-04-18T01:36:41.335Z,18.300
2023-04-18T01:37:41.959Z,15.800
2023-04-18T01:38:42.185Z,18.200
2023-04-18T01:39:41.363Z,17.100
2023-04-18T01:40:41.565Z,16.700
2023-04-18T01:41:41.728Z,17.800
2023-04-18T01:42:41.827Z,17.500
2023-04-18T01:43:42.020Z,16.500
2023-04-18T01:44:42.159Z,16.600
2023-04-18T01:45:41.361Z,17.000
2023-04-18T01:46:41.889Z,16.600
2023-04-18T01:47:42.349Z,16.500
2023-04-18T01:48:41.550Z,16.900
2023-04-18T01:49:41.651Z,16.800
2023-04-18T01:50:41.857Z,16.900
2023-04-18T01:51:42.037Z,16.600
2023-04-18T01:52:42.228Z,17.100
2023-04-18T01:53:41.314Z,17.100
2023-04-18T01:54:41.538Z,16.100
2023-04-18T01:55:41.889Z,16.100
2023-04-18T01:56:42.160Z,16.400
2023-04-18T01:57:41.334Z,16.400
2023-04-18T01:58:41.605Z,18.100
2023-04-18T01:59:41.760Z,16.300
2023-04-18T02:00:42.059Z,17.900
2023-04-18T02:01:42.689Z,17.800
2023-04-18T02:02:42.556Z,16.000
2023-04-18T02:03:43.136Z,16.400
2023-04-18T02:04:41.821Z,15.700
2023-04-18T02:05:42.167Z,17.300
2023-04-18T02:06:41.295Z,17.300
2023-04-18T02:07:41.525Z,16.400
2023-04-18T02:08:41.731Z,17.000
2023-04-18T02:09:41.867Z,16.700
2023-04-18T02:10:42.064Z,17.600
2023-04-18T02:11:42.255Z,15.500
2023-04-18T02:12:41.413Z,21.700
2023-04-18T02:13:41.687Z,18.000
2023-04-18T02:14:41.815Z,17.300
2023-04-18T02:15:41.992Z,15.800
2023-04-18T02:16:42.509Z,16.900
2023-04-18T02:17:42.029Z,16.100
2023-04-18T02:18:41.256Z,16.700
2023-04-18T02:19:41.393Z,16.200
2023-04-18T02:20:41.647Z,17.500
2023-04-18T02:21:41.832Z,16.500
2023-04-18T02:22:41.992Z,16.500
2023-04-18T02:23:42.152Z,16.600
2023-04-18T02:24:41.324Z,15.900
2023-04-18T02:25:41.526Z,15.900
2023-04-18T02:26:41.721Z,16.600
2023-04-18T02:27:41.921Z,16.400
2023-04-18T02:28:42.096Z,16.400
2023-04-18T02:29:42.249Z,15.800
2023-04-18T02:30:41.628Z,16.200
2023-04-18T02:31:42.016Z,16.100
2023-04-18T02:32:43.461Z,19.900
2023-04-18T02:33:41.711Z,15.800
2023-04-18T02:34:41.820Z,16.700
2023-04-18T02:35:41.995Z,17.600
2023-04-18T02:36:42.223Z,16.100
2023-04-18T02:37:41.384Z,16.300
2023-04-18T02:38:41.683Z,18.000
2023-04-18T02:39:41.883Z,16.700
2023-04-18T02:40:42.199Z,26.800
2023-04-18T02:41:41.379Z,16.200
2023-04-18T02:42:41.597Z,17.400
2023-04-18T02:43:41.743Z,17.200
2023-04-18T02:44:42.028Z,15.900
2023-04-18T02:45:42.280Z,16.300
2023-04-18T02:46:41.483Z,16.500
2023-04-18T02:47:54.202Z,20.000
2023-04-18T02:48:41.698Z,20.700
2023-04-18T02:49:41.934Z,17.500
2023-04-18T02:50:42.211Z,17.200
2023-04-18T02:51:41.316Z,16.500
2023-04-18T02:52:41.536Z,15.300
2023-04-18T02:53:41.676Z,19.000
2023-04-18T02:54:42.049Z,16.200
2023-04-18T02:55:42.245Z,17.700
2023-04-18T02:56:41.496Z,15.500
2023-04-18T02:57:41.672Z,18.500
2023-04-18T02:58:42.048Z,17.900
2023-04-18T02:59:42.183Z,15.700
2023-04-18T03:00:41.360Z,15.800
2023-04-18T03:01:41.794Z,17.900
2023-04-18T03:02:42.711Z,16.500
2023-04-18T03:03:42.336Z,16.600
2023-04-18T03:04:41.619Z,16.300
2023-04-18T03:05:42.070Z,16.100
2023-04-18T03:06:42.299Z,16.000
2023-04-18T03:07:41.417Z,17.000
2023-04-18T03:08:41.650Z,16.000
2023-04-18T03:09:42.067Z,16.500
2023-04-18T03:10:41.258Z,16.200
2023-04-18T03:11:41.526Z,16.300
2023-04-18T03:12:41.751Z,16.100
2023-04-18T03:13:42.063Z,16.200
2023-04-18T03:14:42.226Z,14.800
2023-04-18T03:15:41.575Z,15.600
2023-04-18T03:16:42.167Z,16.200
2023-04-18T03:17:41.459Z,16.900
2023-04-18T03:18:41.772Z,15.200
2023-04-18T03:19:41.994Z,16.000
2023-04-18T03:20:42.168Z,15.900
2023-04-18T03:21:41.372Z,15.800
2023-04-18T03:22:41.537Z,15.600
2023-04-18T03:23:41.723Z,16.900
2023-04-18T03:24:41.940Z,16.500
2023-04-18T03:25:42.173Z,16.700
2023-04-18T03:26:41.307Z,16.600
2023-04-18T03:27:41.485Z,15.700
2023-04-18T03:28:41.711Z,15.300
2023-04-18T03:29:41.898Z,17.500
2023-04-18T03:30:42.092Z,16.800
2023-04-18T03:31:42.559Z,16.900
2023-04-18T03:32:42.099Z,16.500
2023-04-18T03:33:41.486Z,17.100
2023-04-18T03:34:41.744Z,15.500
2023-04-18T03:35:42.045Z,16.300
2023-04-18T03:36:41.239Z,16.800
2023-04-18T03:37:41.352Z,15.800
2023-04-18T03:38:41.670Z,18.000
2023-04-18T03:39:41.786Z,16.200
2023-04-18T03:40:42.037Z,16.600
2023-04-18T03:41:42.197Z,16.300
2023-04-18T03:42:41.292Z,16.600
2023-04-18T03:43:41.453Z,15.500
2023-04-18T03:44:41.777Z,16.800
2023-04-18T03:45:41.972Z,16.800
2023-04-18T03:46:42.347Z,16.100
2023-04-18T03:47:41.614Z,17.200
2023-04-18T03:48:42.000Z,16.900
2023-04-18T03:49:42.239Z,15.900
2023-04-18T03:50:41.416Z,15.600
2023-04-18T03:51:41.581Z,16.400
2023-04-18T03:52:44.208Z,16.000
2023-04-18T03:56:41.859Z,16.400
2023-04-18T03:57:42.929Z,16.200
2023-04-18T03:59:41.259Z,17.000
2023-04-18T04:00:41.679Z,17.700
2023-04-18T04:01:41.912Z,16.500
2023-04-18T04:02:42.808Z,16.100
2023-04-18T04:03:43.166Z,17.200
2023-04-18T04:04:42.197Z,16.900
2023-04-18T04:05:41.568Z,17.000
2023-04-18T04:06:41.749Z,15.500
2023-04-18T04:07:42.016Z,17.900
2023-04-18T04:08:43.844Z,16.800
2023-04-18T04:11:41.406Z,16.900
2023-04-18T04:12:41.601Z,17.800
2023-04-18T04:13:41.816Z,16.800
2023-04-18T04:14:42.069Z,16.700
2023-04-18T04:15:42.222Z,17.700
2023-04-18T04:16:41.476Z,16.700
2023-04-18T04:17:41.975Z,17.600
2023-04-18T04:18:41.217Z,17.100
2023-04-18T04:19:41.444Z,17.000
2023-04-18T04:20:41.655Z,16.400
2023-04-18T04:21:41.954Z,16.800
2023-04-18T04:22:42.213Z,17.300
2023-04-18T04:23:41.403Z,17.300
2023-04-18T04:24:41.481Z,17.200
2023-04-18T04:25:41.823Z,16.600
2023-04-18T04:26:42.060Z,16.800
2023-04-18T04:27:42.363Z,17.500
2023-04-18T04:28:41.540Z,16.700
2023-04-18T04:29:41.709Z,17.700
2023-04-18T04:30:41.869Z,17.700
2023-04-18T04:31:42.210Z,16.900
2023-04-18T04:32:41.697Z,17.100
2023-04-18T04:33:41.950Z,18.300
2023-04-18T04:34:42.135Z,18.000
2023-04-18T04:35:41.348Z,17.200
2023-04-18T04:36:41.502Z,18.000
2023-04-18T04:37:41.726Z,17.800
2023-04-18T04:38:41.985Z,16.200
2023-04-18T04:39:42.346Z,17.500
2023-04-18T04:40:41.665Z,17.500
2023-04-18T04:41:41.855Z,17.600
2023-04-18T04:42:42.116Z,17.600
2023-04-18T04:43:41.340Z,18.100
2023-04-18T04:44:41.830Z,17.300
2023-04-18T04:45:42.229Z,17.500
2023-04-18T04:46:41.664Z,17.800
2023-04-18T04:47:42.021Z,17.800
2023-04-18T04:48:41.262Z,17.700
2023-04-18T04:49:41.426Z,17.500
2023-04-18T04:50:41.605Z,18.400
2023-04-18T04:51:41.856Z,17.400
2023-04-18T04:52:42.048Z,18.100
2023-04-18T04:53:42.210Z,17.700
2023-04-18T04:54:41.536Z,18.100
2023-04-18T04:55:41.695Z,17.900
2023-04-18T04:56:41.927Z,17.900
2023-04-18T04:57:42.126Z,17.400
2023-04-18T04:58:41.576Z,17.000
2023-04-18T04:59:41.813Z,18.200
2023-04-18T05:00:42.061Z,17.900
2023-04-18T05:01:42.495Z,17.600
2023-04-18T05:02:42.340Z,18.600
2023-04-18T05:03:42.889Z,19.200
2023-04-18T05:04:42.567Z,18.700
2023-04-18T05:05:41.776Z,19.300
2023-04-18T05:06:41.942Z,18.300
2023-04-18T05:07:42.198Z,17.900
2023-04-18T05:08:41.320Z,17.600
2023-04-18T05:09:41.517Z,18.400
2023-04-18T05:10:41.704Z,19.100
2023-04-18T05:11:41.824Z,17.800
2023-04-18T05:12:41.960Z,17.800
2023-04-18T05:13:42.215Z,18.400
2023-04-18T05:14:41.397Z,18.400
2023-04-18T05:15:41.619Z,20.100
2023-04-18T05:16:41.988Z,18.800
2023-04-18T05:17:42.522Z,18.600
2023-04-18T05:18:41.734Z,18.300
2023-04-18T05:19:41.925Z,18.300
2023-04-18T05:20:42.101Z,18.400
2023-04-18T05:21:41.307Z,19.200
2023-04-18T05:22:41.472Z,19.400
2023-04-18T05:23:41.656Z,19.100
2023-04-18T05:24:41.851Z,19.000
2023-04-18T05:25:42.270Z,19.100
2023-04-18T05:26:41.475Z,18.900
2023-04-18T05:27:41.709Z,19.100
2023-04-18T05:28:41.914Z,19.400
2023-04-18T05:29:42.128Z,18.700
2023-04-18T05:30:41.430Z,18.100
2023-04-18T05:31:41.748Z,20.400
2023-04-18T05:32:42.208Z,18.000
2023-04-18T05:33:41.459Z,19.300
2023-04-18T05:34:41.692Z,18.700
2023-04-18T05:35:41.996Z,19.100
2023-04-18T05:36:42.247Z,18.700
2023-04-18T05:37:41.414Z,18.500
2023-04-18T05:38:41.575Z,18.600
2023-04-18T05:39:42.268Z,18.500
2023-04-18T05:40:41.602Z,19.000
2023-04-18T05:41:41.728Z,18.500
2023-04-18T05:42:41.864Z,18.400
2023-04-18T05:43:46.329Z,19.100
2023-04-18T05:45:41.493Z,17.700
2023-04-18T05:46:41.997Z,18.100
2023-04-18T05:47:42.465Z,19.700
2023-04-18T05:48:41.631Z,19.400
2023-04-18T05:49:41.785Z,19.300
2023-04-18T05:50:41.944Z,18.500
2023-04-18T05:51:42.880Z,18.400
2023-04-18T05:52:42.133Z,18.900
2023-04-18T05:53:41.305Z,18.200
2023-04-18T05:54:41.536Z,19.400
2023-04-18T05:55:41.695Z,18.300
2023-04-18T05:56:41.927Z,19.500
2023-04-18T05:57:42.097Z,18.700
2023-04-18T05:58:42.263Z,20.600
2023-04-18T05:59:41.536Z,18.100
2023-04-18T06:00:41.731Z,20.500
2023-04-18T06:01:41.988Z,18.900
2023-04-18T06:02:42.929Z,19.300
2023-04-18T06:03:42.081Z,18.500
2023-04-18T06:04:42.748Z,18.900
2023-04-18T06:05:42.326Z,18.900
2023-04-18T06:06:41.721Z,19.200
2023-04-18T06:07:41.928Z,17.100
2023-04-18T06:08:42.115Z,18.300
2023-04-18T06:09:42.381Z,17.600
2023-04-18T06:10:41.549Z,19.200
2023-04-18T06:11:41.793Z,19.300
2023-04-18T06:12:41.937Z,19.100
2023-04-18T06:13:42.176Z,19.600
2023-04-18T06:14:41.417Z,18.600
2023-04-18T06:15:41.568Z,19.600
2023-04-18T06:16:42.242Z,18.900
2023-04-18T06:17:41.656Z,19.000
2023-04-18T06:18:41.948Z,18.500
2023-04-18T06:19:42.118Z,18.900
2023-04-18T06:21:41.497Z,19.600
2023-04-18T06:22:41.790Z,18.800
2023-04-18T06:23:41.997Z,18.500
2023-04-18T06:24:42.225Z,18.700
2023-04-18T06:25:41.566Z,17.500
2023-04-18T06:26:41.876Z,17.400
2023-04-18T06:27:49.189Z,18.100
2023-04-18T06:28:41.408Z,18.000
2023-04-18T06:29:41.663Z,17.400
2023-04-18T06:30:41.791Z,18.000
2023-04-18T06:31:42.282Z,18.600
2023-04-18T06:32:41.826Z,16.900
2023-04-18T06:33:42.174Z,17.400
2023-04-18T06:34:41.358Z,17.300
2023-04-18T06:35:43.883Z,17.400
2023-04-18T06:37:42.105Z,16.800
2023-04-18T06:38:42.287Z,17.400
2023-04-18T06:39:41.633Z,17.700
2023-04-18T06:40:41.828Z,17.500
2023-04-18T06:41:42.000Z,16.500
2023-04-18T06:42:42.264Z,18.200
2023-04-18T06:43:49.290Z,16.200
2023-04-18T06:44:41.288Z,16.000
2023-04-18T06:45:41.851Z,17.000
2023-04-18T06:46:42.321Z,16.000
2023-04-18T06:47:41.759Z,16.300
2023-04-18T06:48:41.942Z,15.700
2023-04-18T06:49:43.815Z,16.200
2023-04-18T06:52:41.427Z,16.100
2023-04-18T06:53:41.699Z,16.500
2023-04-18T06:54:42.891Z,15.000
2023-04-18T06:55:42.102Z,15.200
2023-04-18T06:56:42.256Z,15.300
2023-04-18T06:57:41.468Z,14.600
2023-04-18T06:58:41.661Z,15.500
2023-04-18T06:59:41.884Z,15.100
2023-04-18T07:00:42.171Z,15.500
2023-04-18T07:01:41.521Z,15.400
2023-04-18T07:02:42.275Z,14.300
2023-04-18T07:03:46.009Z,15.700
2023-04-18T07:04:42.023Z,15.600
2023-04-18T07:05:42.404Z,14.900
2023-04-18T07:06:41.723Z,14.500
2023-04-18T07:07:42.153Z,15.000
2023-04-18T07:08:41.470Z,14.500
2023-04-18T07:09:41.821Z,14.400
2023-04-18T07:10:42.110Z,15.200
2023-04-18T07:11:41.322Z,14.400
2023-04-18T07:12:41.496Z,15.100
2023-04-18T07:13:41.714Z,14.400
2023-04-18T07:14:42.031Z,14.600
2023-04-18T07:15:42.289Z,14.900
2023-04-18T07:16:41.637Z,14.600
2023-04-18T07:17:42.037Z,14.400
2023-04-18T07:18:52.145Z,14.100
2023-04-18T07:20:41.395Z,14.500
2023-04-18T07:21:41.643Z,13.700
2023-04-18T07:22:41.911Z,13.600
2023-04-18T07:23:42.090Z,14.200
2023-04-18T07:24:42.583Z,13.400
2023-04-18T07:25:41.798Z,13.900
2023-04-18T07:26:42.068Z,13.500
2023-04-18T07:27:42.288Z,13.400
2023-04-18T07:28:41.648Z,13.300
2023-04-18T07:29:41.947Z,13.100
2023-04-18T07:30:43.030Z,12.800
2023-04-18T07:31:42.304Z,13.400
2023-04-18T07:32:43.261Z,13.000
2023-04-18T07:35:42.236Z,12.800
2023-04-18T07:36:41.372Z,13.500
2023-04-18T07:37:41.616Z,13.200
2023-04-18T07:38:41.863Z,13.700
2023-04-18T07:39:42.393Z,13.900
2023-04-18T07:40:41.643Z,13.500
2023-04-18T07:41:42.298Z,13.400
2023-04-18T07:42:41.840Z,14.100
2023-04-18T07:43:43.208Z,14.000
2023-04-18T07:44:42.193Z,14.400
2023-04-18T07:45:42.269Z,13.200
2023-04-18T07:46:42.464Z,13.500
2023-04-18T07:47:44.004Z,14.400
2023-04-18T07:48:42.534Z,14.100
2023-04-18T07:50:42.617Z,14.800
2023-04-18T07:51:43.352Z,14.300
2023-04-18T07:52:42.208Z,13.300
2023-04-18T07:53:41.600Z,13.600
2023-04-18T07:54:42.179Z,14.400
2023-04-18T07:55:41.696Z,13.700
2023-04-18T07:56:41.978Z,14.200
2023-04-18T07:57:42.215Z,13.800
2023-04-18T07:58:41.449Z,13.500
2023-04-18T07:59:41.812Z,13.600
2023-04-18T08:00:42.655Z,14.200
2023-04-18T08:01:42.178Z,12.700
2023-04-18T08:02:41.888Z,13.300
2023-04-18T08:03:42.443Z,14.400
2023-04-18T08:04:46.335Z,13.300
2023-04-18T08:06:41.861Z,13.400
2023-04-18T08:07:42.232Z,14.000
2023-04-18T08:08:41.743Z,13.500
2023-04-18T08:09:43.051Z,14.000
2023-04-18T08:10:42.449Z,14.000
2023-04-18T08:11:41.828Z,14.000
2023-04-18T08:12:42.177Z,13.100
2023-04-18T08:13:41.887Z,14.100
2023-04-18T08:14:42.043Z,12.900
2023-04-18T08:15:42.450Z,13.600
2023-04-18T08:16:42.012Z,13.800
2023-04-18T08:17:41.500Z,13.700
2023-04-18T08:18:41.775Z,14.100
2023-04-18T08:19:41.945Z,14.000
2023-04-18T08:20:42.366Z,13.800
2023-04-18T08:21:41.496Z,13.700
2023-04-18T08:23:01.886Z,13.100
2023-04-18T08:25:03.595Z,13.400
2023-04-18T08:26:47.757Z,12.400
2023-04-18T08:27:48.324Z,14.000
2023-04-18T08:28:48.250Z,13.600
2023-04-18T08:31:47.814Z,12.300
2023-04-18T08:32:48.295Z,13.000
2023-04-18T08:33:47.664Z,12.900
2023-04-18T08:34:47.845Z,13.200
2023-04-18T08:35:48.065Z,12.700
2023-04-18T08:36:48.286Z,12.500
2023-04-18T08:37:47.525Z,12.800
2023-04-18T08:38:47.740Z,12.300
2023-04-18T08:39:48.445Z,12.100
2023-04-18T08:40:47.687Z,12.700
2023-04-18T08:41:47.840Z,11.900
2023-04-18T08:42:48.071Z,11.900
2023-04-18T08:43:48.360Z,12.200
2023-04-18T08:44:47.601Z,12.200
2023-04-18T08:45:48.122Z,11.800
2023-04-18T08:46:47.550Z,11.600
2023-04-18T08:47:48.061Z,11.700
2023-04-18T08:49:48.143Z,10.900
2023-04-18T08:50:47.359Z,11.400
2023-04-18T08:51:47.574Z,11.500
2023-04-18T08:52:48.668Z,11.500
2023-04-18T08:53:47.946Z,11.200
2023-04-18T08:54:48.533Z,10.900
2023-04-18T08:55:47.815Z,11.400
2023-04-18T08:56:48.181Z,10.800
2023-04-18T08:57:47.533Z,12.400
2023-04-18T08:58:48.137Z,11.300
2023-04-18T08:59:50.932Z,11.400
2023-04-18T09:01:47.886Z,10.900
2023-04-18T09:02:48.996Z,10.800
2023-04-18T09:03:47.528Z,10.900
2023-04-18T09:04:47.916Z,11.900
2023-04-18T09:05:48.317Z,10.900
2023-04-18T09:06:47.546Z,10.600
2023-04-18T09:07:47.760Z,11.000
2023-04-18T09:08:48.020Z,10.400
2023-04-18T09:09:48.458Z,10.200
2023-04-18T09:10:48.344Z,10.300
2023-04-18T09:11:47.603Z,9.600
2023-04-18T09:12:47.869Z,9.200
2023-04-18T09:13:48.092Z,8.900
2023-04-18T09:14:47.350Z,9.000
2023-04-18T09:15:47.592Z,8.900
2023-04-18T09:16:48.029Z,9.000
2023-04-18T09:17:48.726Z,9.700
2023-04-18T09:18:48.170Z,8.500
2023-04-18T09:20:47.823Z,7.800
2023-04-18T09:21:48.034Z,8.500
2023-04-18T09:22:48.234Z,8.300
2023-04-18T09:23:47.379Z,8.000
2023-04-18T09:24:47.623Z,8.000
2023-04-18T09:25:47.812Z,8.900
2023-04-18T09:26:48.015Z,8.300
2023-04-18T09:27:47.284Z,8.200
2023-04-18T09:28:47.697Z,8.300
2023-04-18T09:29:48.668Z,9.900
2023-04-18T09:30:48.015Z,10.100
2023-04-18T09:31:48.578Z,11.500
2023-04-18T09:32:47.915Z,10.800
2023-04-18T09:33:48.341Z,9.800
2023-04-18T09:34:47.899Z,11.200
2023-04-18T09:35:48.221Z,9.800
2023-04-18T09:36:47.545Z,10.300
2023-04-18T09:37:48.033Z,9.600
2023-04-18T09:38:48.276Z,9.200
2023-04-18T09:39:47.437Z,9.000
2023-04-18T09:40:47.630Z,8.900
2023-04-18T09:41:48.441Z,9.700
2023-04-18T09:42:47.641Z,9.000
2023-04-18T09:43:47.897Z,9.600
2023-04-18T09:44:49.923Z,9.200
2023-04-18T09:45:48.167Z,9.100
2023-04-18T09:46:47.829Z,9.100
2023-04-18T09:47:48.330Z,8.900
2023-04-18T09:48:47.736Z,8.400
2023-04-18T09:49:47.968Z,9.300
2023-04-18T09:50:48.166Z,9.000
2023-04-18T09:51:47.515Z,8.500
2023-04-18T09:52:47.659Z,8.300
2023-04-18T09:53:48.103Z,8.800
2023-04-18T09:54:49.717Z,9.100
2023-04-18T09:56:48.175Z,9.000
2023-04-18T09:57:47.368Z,9.300
2023-04-18T09:58:47.937Z,8.800
2023-04-18T09:59:48.181Z,9.300
2023-04-18T10:00:48.508Z,9.000
2023-04-18T10:02:48.223Z,8.500
2023-04-18T10:03:47.775Z,8.700
2023-04-18T10:04:49.116Z,8.800
2023-04-18T10:05:47.677Z,8.200
2023-04-18T10:06:47.981Z,8.500
2023-04-18T10:07:48.164Z,9.200
2023-04-18T10:08:47.312Z,8.100
2023-04-18T10:09:47.920Z,8.600
2023-04-18T10:10:48.122Z,7.700
2023-04-18T10:11:47.626Z,8.400
2023-04-18T10:12:47.985Z,8.700
2023-04-18T10:13:48.385Z,8.200
2023-04-18T10:14:47.649Z,7.700
2023-04-18T10:15:50.852Z,8.300
2023-04-18T10:16:52.125Z,8.400
2023-04-18T10:18:03.236Z,8.900
2023-04-18T10:19:50.486Z,8.100
2023-04-18T10:20:51.091Z,8.900
2023-04-18T10:21:51.273Z,9.300
2023-04-18T10:22:50.456Z,8.200
2023-04-18T10:23:50.818Z,8.500
2023-04-18T10:24:51.315Z,8.300
2023-04-18T10:25:50.572Z,9.100
2023-04-18T10:26:50.842Z,8.800
2023-04-18T10:27:51.389Z,8.300
2023-04-18T10:28:50.536Z,8.500
2023-04-18T10:29:50.746Z,8.300
2023-04-18T10:30:50.924Z,8.700
2023-04-18T10:31:51.246Z,9.700
2023-04-18T10:32:50.704Z,8.500
2023-04-18T10:34:06.062Z,8.400
2023-04-18T10:35:57.116Z,9.300
2023-04-18T10:37:54.528Z,9.100
2023-04-18T10:38:54.828Z,8.900
2023-04-18T10:39:55.113Z,8.700
2023-04-18T10:40:54.404Z,8.700
2023-04-18T10:41:54.710Z,8.400
2023-04-18T10:42:54.905Z,8.500
2023-04-18T10:43:55.191Z,9.000
2023-04-18T10:44:54.420Z,8.400
2023-04-18T10:45:54.732Z,8.900
2023-04-18T10:47:00.246Z,8.000
2023-04-18T10:48:55.893Z,8.700
2023-04-18T10:49:55.103Z,8.800
2023-04-18T10:50:54.360Z,8.300
2023-04-18T10:51:54.615Z,7.900
2023-04-18T10:52:54.879Z,8.000
2023-04-18T10:53:55.203Z,9.700
2023-04-18T10:54:54.927Z,9.200
2023-04-18T10:55:54.968Z,9.200
2023-04-18T10:56:55.241Z,9.200
2023-04-18T10:57:54.497Z,8.900
2023-04-18T10:58:54.725Z,9.100
2023-04-18T10:59:55.150Z,9.200
2023-04-18T11:00:54.487Z,9.700
2023-04-18T11:01:55.367Z,9.600
2023-04-18T11:02:55.058Z,10.000
2023-04-18T11:03:55.276Z,10.500
2023-04-18T11:04:54.524Z,10.900
2023-04-18T11:05:56.108Z,10.200
2023-04-18T11:06:55.368Z,9.800
2023-04-18T11:08:54.777Z,10.500
2023-04-18T11:09:55.005Z,11.200
2023-04-18T11:10:55.539Z,11.200
2023-04-18T11:11:54.822Z,11.200
2023-04-18T11:12:55.096Z,11.100
2023-04-18T11:13:54.337Z,10.900
2023-04-18T11:14:54.617Z,10.500
2023-04-18T11:15:54.858Z,11.500
2023-04-18T11:16:55.292Z,11.100
2023-04-18T11:17:54.664Z,10.600
2023-04-18T11:18:55.200Z,11.600
2023-04-18T11:20:54.595Z,10.700
2023-04-18T11:21:54.994Z,11.400
2023-04-18T11:22:55.387Z,10.800
2023-04-18T11:23:54.620Z,10.800
2023-04-18T11:24:54.785Z,11.200
2023-04-18T11:25:55.049Z,11.300
2023-04-18T11:26:54.477Z,11.200
2023-04-18T11:27:55.221Z,11.500
2023-04-18T11:28:54.482Z,11.300
2023-04-18T11:29:54.709Z,11.400
2023-04-18T11:30:55.005Z,11.000
2023-04-18T11:31:59.870Z,10.800
2023-04-18T11:32:55.246Z,11.000
2023-04-18T11:33:54.829Z,12.000
2023-04-18T11:34:55.167Z,13.200
2023-04-18T11:35:54.367Z,12.100
2023-04-18T11:36:54.599Z,11.900
2023-04-18T11:37:55.017Z,13.000
2023-04-18T11:38:57.329Z,12.700
2023-04-18T11:39:54.645Z,12.400
2023-04-18T11:40:54.920Z,12.300
2023-04-18T11:41:55.182Z,13.000
2023-04-18T11:42:54.608Z,12.300
2023-04-18T11:43:54.897Z,12.700
2023-04-18T11:44:55.161Z,13.800
2023-04-18T11:45:54.401Z,15.400
2023-04-18T11:46:54.909Z,14.500
2023-04-18T11:47:55.372Z,13.300
2023-04-18T11:48:54.747Z,13.900
2023-04-18T11:49:58.368Z,13.400
2023-04-18T11:50:54.537Z,13.400
2023-04-18T11:51:54.766Z,15.700
2023-04-18T11:52:55.148Z,15.100
2023-04-18T11:53:54.300Z,13.600
2023-04-18T11:54:54.483Z,14.900
2023-04-18T11:55:54.706Z,14.100
2023-04-18T11:56:54.891Z,12.100
2023-04-18T11:57:55.151Z,14.700
2023-04-18T11:58:54.418Z,22.500
2023-04-18T11:59:54.671Z,15.700
2023-04-18T12:00:54.929Z,14.000
2023-04-18T12:01:58.528Z,13.600
2023-04-18T12:02:55.273Z,12.600
2023-04-18T12:03:55.120Z,15.500
2023-04-18T12:04:56.448Z,11.600
2023-04-18T12:05:56.955Z,12.000
2023-04-18T12:08:55.656Z,11.200
2023-04-18T12:11:55.337Z,11.900
2023-04-18T12:12:54.551Z,11.500
2023-04-18T12:13:54.917Z,11.300
2023-04-18T12:14:55.197Z,11.900
2023-04-18T12:15:54.694Z,11.500
2023-04-18T12:16:55.029Z,11.400
2023-04-18T12:17:55.581Z,11.200
2023-04-18T12:18:54.892Z,11.600
2023-04-18T12:19:55.220Z,12.600
2023-04-18T12:20:54.462Z,11.700
2023-04-18T12:21:54.699Z,12.700
2023-04-18T12:22:55.002Z,11.900
2023-04-18T12:23:55.291Z,12.700
2023-04-18T12:24:54.557Z,12.000
2023-04-18T12:25:54.879Z,11.800
2023-04-18T12:26:55.186Z,11.100
2023-04-18T12:27:54.332Z,12.500
2023-04-18T12:28:54.634Z,12.400
2023-04-18T12:29:54.926Z,12.300
2023-04-18T12:30:55.295Z,12.900
2023-04-18T12:31:54.992Z,12.200
2023-04-18T12:32:54.758Z,11.700
2023-04-18T12:33:55.155Z,11.700
2023-04-18T12:36:54.740Z,11.400
2023-04-18T12:37:56.117Z,11.900
2023-04-18T12:38:54.329Z,10.700
2023-04-18T12:39:54.541Z,10.700
2023-04-18T12:40:54.781Z,10.700
2023-04-18T12:41:55.088Z,11.700
2023-04-18T12:42:55.024Z,10.700
2023-04-18T12:43:55.379Z,10.500
2023-04-18T12:44:54.545Z,11.100
2023-04-18T12:45:55.050Z,10.900
2023-04-18T12:46:54.583Z,10.600
2023-04-18T12:47:55.333Z,10.500
2023-04-18T12:48:54.584Z,11.400
2023-04-18T12:49:54.918Z,10.900
2023-04-18T12:50:55.221Z,10.900
2023-04-18T12:51:54.453Z,9.900
2023-04-18T12:52:54.802Z,10.400
2023-04-18T12:53:55.080Z,10.100
2023-04-18T12:54:55.331Z,10.200
2023-04-18T12:56:55.236Z,11.200
2023-04-18T12:57:54.634Z,10.200
2023-04-18T12:58:54.876Z,10.400
2023-04-18T12:59:55.183Z,10.700
2023-04-18T13:00:54.566Z,9.400
2023-04-18T13:01:55.352Z,11.000
2023-04-18T13:02:55.381Z,10.100
2023-04-18T13:04:11.433Z,10.300
2023-04-18T13:05:58.352Z,10.300
2023-04-18T13:06:57.661Z,11.000
2023-04-18T13:09:58.852Z,9.800
2023-04-18T13:11:58.625Z,10.500
2023-04-18T13:12:58.900Z,10.300
2023-04-18T13:13:59.148Z,11.200
2023-04-18T13:14:58.536Z,11.600
2023-04-18T13:15:58.881Z,11.300
2023-04-18T13:17:01.424Z,10.500